Terminal Aerodrome Forecast
Issued by NWS

Home | Current Version | Previous Version | Text Only | Print | Product List | Glossary On
Versions: 1 2 3 4 5 6 7 8 9 10 11 12 13
792
FTUS45 KRIW 232325
TAFRKS
TAF
KRKS 232325Z 2400/2424 26018G28KT P6SM BKN100
     FM241700 26022G35KT P6SM BKN100=

USA.gov is the U.S. government's official web portal to all federal, state and local government web resources and services.